Time;durP1;ratioP1;P1;durP2;ratioP2;P2;SDS_P1;SDS_P2;PMS_P1;PMS_P2;Temp;Humidity;BMP_temperature;BMP_pressure;BME280_temperature;BME280_humidity;BME280_pressure;Samples;Min_cycle;Max_cycle;Signal;HPM_P1;HPM_P2
2023/04/29 00:02:16;;;;;;;13.30;10.10;;;;;;;7.40;57.67;99658.04;219345;1256;139677;-67
2023/04/29 00:07:21;;;;;;;14.50;11.20;;;;;;;7.39;58.08;99657.16;218373;1255;139444;-68
2023/04/29 00:12:26;;;;;;;14.80;11.20;;;;;;;7.36;57.72;99655.06;217873;1259;139178;-67
2023/04/29 00:17:30;;;;;;;18.10;12.10;;;;;;;7.31;58.36;99654.14;220569;1256;139599;-68
2023/04/29 00:22:34;;;;;;;14.90;10.50;;;;;;;7.30;58.52;99650.63;219814;1256;139489;-66
2023/04/29 00:27:38;;;;;;;15.00;10.00;;;;;;;7.32;58.22;99648.55;220329;1256;140064;-68
2023/04/29 00:32:43;;;;;;;22.50;13.00;;;;;;;7.35;58.10;99646.70;217665;1256;139328;-68
2023/04/29 00:37:46;;;;;;;15.90;10.90;;;;;;;7.37;58.40;99640.52;219616;1256;139372;-68
2023/04/29 00:42:50;;;;;;;16.60;11.10;;;;;;;7.38;58.20;99638.31;218341;1256;138929;-67
2023/04/29 00:47:53;;;;;;;14.20;10.30;;;;;;;7.37;58.14;99632.81;218364;1256;140138;-68
2023/04/29 00:52:57;;;;;;;14.70;10.20;;;;;;;7.36;58.21;99629.88;218669;1256;139185;-67
2023/04/29 00:58:01;;;;;;;13.10;10.70;;;;;;;7.37;58.32;99630.61;217671;1259;139099;-68
2023/04/29 01:03:04;;;;;;;16.10;10.90;;;;;;;7.39;58.48;99629.81;218404;1256;138857;-68
2023/04/29 01:08:36;;;;;;;14.40;11.20;;;;;;;7.42;58.40;99635.22;217779;1260;139914;-67
2023/04/29 01:13:50;;;;;;;13.80;9.80;;;;;;;7.45;58.07;99634.15;218677;1256;139420;-68
2023/04/29 01:19:11;;;;;;;13.80;9.80;;;;;;;7.45;58.40;99636.42;218155;1259;139232;-67
2023/04/29 01:24:17;;;;;;;14.60;9.50;;;;;;;7.42;58.30;99632.08;217501;1259;993350;-67
2023/04/29 01:29:34;;;;;;;14.10;9.10;;;;;;;7.40;58.03;99632.59;217651;1257;139100;-67
2023/04/29 01:35:00;;;;;;;12.70;9.00;;;;;;;7.37;58.36;99631.51;218616;1256;141012;-67
2023/04/29 01:40:25;;;;;;;18.20;12.10;;;;;;;7.35;58.02;99629.16;217885;1257;139011;-67
2023/04/29 01:45:33;;;;;;;13.10;9.30;;;;;;;7.34;58.24;99631.94;219013;1256;151218;-67
2023/04/29 01:50:36;;;;;;;10.90;9.00;;;;;;;7.34;58.34;99630.50;218953;1255;139206;-67
2023/04/29 01:55:40;;;;;;;15.10;10.50;;;;;;;7.35;58.34;99626.71;218780;1257;139832;-67
2023/04/29 02:00:44;;;;;;;14.80;9.70;;;;;;;7.34;58.27;99626.77;218633;1256;139346;-67
2023/04/29 02:05:49;;;;;;;16.30;9.90;;;;;;;7.33;58.19;99623.69;220012;1256;139774;-68
2023/04/29 02:10:55;;;;;;;12.20;8.80;;;;;;;7.34;58.08;99620.52;219568;1256;140170;-67
2023/04/29 02:16:07;;;;;;;16.90;9.60;;;;;;;7.33;58.35;99617.37;220453;1256;140389;-68
2023/04/29 02:21:11;;;;;;;13.20;8.80;;;;;;;7.32;58.34;99615.65;220495;1256;140370;-68
2023/04/29 02:26:15;;;;;;;14.40;8.60;;;;;;;7.33;58.63;99611.81;220125;1256;139875;-68
2023/04/29 02:31:19;;;;;;;11.60;9.00;;;;;;;7.35;58.26;99610.06;218779;1259;140314;-68
2023/04/29 02:36:23;;;;;;;13.20;9.30;;;;;;;7.36;58.38;99601.36;218193;1256;139359;-68
2023/04/29 02:41:27;;;;;;;11.90;8.70;;;;;;;7.32;58.53;99596.35;218984;1256;139319;-69
2023/04/29 02:46:32;;;;;;;11.60;9.50;;;;;;;7.27;58.73;99600.60;218046;1257;139865;-68
2023/04/29 02:51:36;;;;;;;15.40;10.10;;;;;;;7.21;58.47;99597.84;217773;1256;140099;-66
2023/04/29 02:56:40;;;;;;;11.70;8.20;;;;;;;7.17;58.88;99592.08;218809;1256;139768;-66
2023/04/29 03:01:44;;;;;;;8.80;7.10;;;;;;;7.13;59.10;99587.23;218377;1256;249888;-68
2023/04/29 03:06:48;;;;;;;10.80;9.40;;;;;;;7.12;58.93;99584.06;218479;1256;138807;-67
2023/04/29 03:11:52;;;;;;;11.60;8.70;;;;;;;7.12;59.37;99587.61;217769;1257;139217;-68
2023/04/29 03:16:55;;;;;;;17.30;8.50;;;;;;;7.12;59.22;99585.45;218363;1257;139074;-68
2023/04/29 03:21:59;;;;;;;12.40;9.00;;;;;;;7.09;59.68;99586.05;218349;1256;139249;-68
2023/04/29 03:27:03;;;;;;;12.80;8.30;;;;;;;7.05;59.84;99583.80;218477;1256;139362;-68
2023/04/29 03:32:07;;;;;;;11.00;7.70;;;;;;;7.02;60.07;99580.00;217826;1257;139245;-67
2023/04/29 03:37:12;;;;;;;14.00;8.20;;;;;;;6.96;59.98;99579.48;217972;1256;138996;-68
2023/04/29 03:42:15;;;;;;;13.50;9.70;;;;;;;6.89;60.06;99572.34;219405;1256;139173;-68
2023/04/29 03:47:19;;;;;;;15.40;8.10;;;;;;;6.82;60.34;99573.08;218018;1257;138734;-68
2023/04/29 03:52:23;;;;;;;9.60;8.00;;;;;;;6.76;60.49;99570.34;219161;1258;140192;-67
2023/04/29 03:57:26;;;;;;;9.50;8.40;;;;;;;6.73;60.79;99568.73;219320;1257;139609;-67
2023/04/29 04:02:30;;;;;;;13.70;9.00;;;;;;;6.71;60.85;99566.92;219949;1257;138987;-67
2023/04/29 04:07:33;;;;;;;10.40;8.00;;;;;;;6.70;61.22;99566.29;220713;1256;138833;-67
2023/04/29 04:12:37;;;;;;;10.90;7.50;;;;;;;6.75;61.06;99567.46;220355;1256;140314;-66
2023/04/29 04:17:39;;;;;;;11.80;9.80;;;;;;;6.90;61.35;99566.02;219558;1256;141096;-67
2023/04/29 04:22:43;;;;;;;13.10;8.50;;;;;;;7.08;61.64;99560.48;218519;1256;139796;-65
2023/04/29 04:27:47;;;;;;;16.70;9.50;;;;;;;7.37;61.30;99556.33;218863;1257;142508;-65
2023/04/29 04:32:50;;;;;;;13.60;8.90;;;;;;;7.73;61.62;99556.38;218339;1256;140859;-68
2023/04/29 04:37:53;;;;;;;10.20;9.00;;;;;;;8.04;61.21;99550.60;217906;1259;139871;-69
2023/04/29 04:42:56;;;;;;;9.00;8.10;;;;;;;8.27;61.27;99548.56;218964;1256;139835;-68
2023/04/29 04:47:59;;;;;;;12.70;9.50;;;;;;;8.47;60.67;99549.35;217985;1256;139417;-68
2023/04/29 04:53:02;;;;;;;16.70;10.50;;;;;;;8.51;60.32;99541.05;218527;1260;140099;-66
2023/04/29 04:58:06;;;;;;;11.40;10.20;;;;;;;8.50;59.87;99534.92;218016;1257;140571;-66
2023/04/29 05:03:10;;;;;;;14.70;9.40;;;;;;;8.53;60.22;99528.10;217835;1257;140290;-66
2023/04/29 05:08:13;;;;;;;12.10;9.20;;;;;;;8.68;60.01;99528.16;218404;1259;138960;-65
2023/04/29 05:13:18;;;;;;;11.10;8.10;;;;;;;8.88;59.77;99529.35;217812;1256;139324;-67
2023/04/29 05:18:22;;;;;;;11.40;8.50;;;;;;;9.17;59.77;99531.27;218072;1257;140519;-66
2023/04/29 05:23:25;;;;;;;13.50;10.30;;;;;;;9.29;59.31;99527.29;217786;1257;139476;-66
2023/04/29 05:28:28;;;;;;;10.30;9.20;;;;;;;9.35;59.05;99521.16;218647;1257;140126;-66
2023/04/29 05:33:32;;;;;;;16.40;10.20;;;;;;;9.88;58.87;99523.03;218017;1257;139303;-68
2023/04/29 05:38:36;;;;;;;12.40;9.10;;;;;;;10.48;58.49;99526.36;217788;1257;139451;-67
2023/04/29 05:43:40;;;;;;;11.90;9.90;;;;;;;10.52;57.98;99531.23;218794;1257;141049;-69
2023/04/29 05:48:45;;;;;;;20.40;9.20;;;;;;;10.46;58.02;99531.22;217942;1259;139718;-68
2023/04/29 05:53:49;;;;;;;11.30;8.50;;;;;;;10.56;57.77;99527.73;217690;1257;139516;-69
2023/04/29 05:58:51;;;;;;;10.80;9.10;;;;;;;10.67;57.66;99525.90;219688;1256;140439;-68
2023/04/29 06:03:54;;;;;;;12.00;10.40;;;;;;;10.73;57.63;99525.37;217609;1260;219607;-69
2023/04/29 06:09:00;;;;;;;14.60;8.70;;;;;;;10.63;57.44;99530.83;220330;1257;139831;-70
2023/04/29 06:14:03;;;;;;;13.50;9.60;;;;;;;10.55;57.54;99530.80;218839;1256;140440;-70
2023/04/29 06:19:07;;;;;;;9.70;8.40;;;;;;;10.59;57.46;99526.45;220507;1257;139447;-67
2023/04/29 06:24:09;;;;;;;9.10;8.10;;;;;;;10.79;57.66;99528.88;218162;1257;140296;-68
2023/04/29 06:29:12;;;;;;;13.60;9.90;;;;;;;11.20;57.46;99527.39;219051;1257;139607;-70
2023/04/29 06:34:14;;;;;;;12.00;8.70;;;;;;;11.58;57.02;99524.89;217737;1257;140335;-70
2023/04/29 06:39:17;;;;;;;15.00;9.70;;;;;;;12.01;56.50;99518.33;217665;1259;140208;-66
2023/04/29 06:44:19;;;;;;;12.70;9.90;;;;;;;12.63;56.49;99520.86;217859;1260;140359;-67
2023/04/29 06:49:22;;;;;;;11.80;9.30;;;;;;;13.27;56.08;99520.02;217948;1257;139488;-66
2023/04/29 06:54:27;;;;;;;12.10;9.60;;;;;;;13.40;55.05;99521.94;217792;1257;139576;-67
2023/04/29 06:59:32;;;;;;;9.70;8.50;;;;;;;13.49;55.02;99530.14;218524;1257;139617;-67
2023/04/29 07:04:36;;;;;;;10.30;8.00;;;;;;;13.91;54.33;99530.08;218834;1260;140659;-72
2023/04/29 07:09:39;;;;;;;16.60;10.60;;;;;;;15.04;54.50;99527.48;217754;1257;140279;-69
2023/04/29 07:14:43;;;;;;;11.40;8.10;;;;;;;15.96;53.33;99522.19;217915;1259;139563;-72
2023/04/29 07:19:46;;;;;;;12.80;9.10;;;;;;;15.96;51.92;99521.33;217963;1257;140607;-72
2023/04/29 07:24:53;;;;;;;11.00;8.50;;;;;;;15.74;51.19;99518.55;217884;1257;139849;-70
2023/04/29 07:29:59;;;;;;;9.40;8.30;;;;;;;15.66;51.50;99522.23;218753;1257;139975;-73
2023/04/29 07:35:02;;;;;;;10.60;9.40;;;;;;;15.48;50.50;99524.67;218454;1257;139862;-71
2023/04/29 07:40:05;;;;;;;16.00;8.80;;;;;;;15.26;50.43;99525.34;217589;1257;139721;-68
2023/04/29 07:45:08;;;;;;;9.70;8.50;;;;;;;14.84;50.20;99527.39;217412;1259;140742;-69
2023/04/29 07:50:10;;;;;;;13.20;9.00;;;;;;;14.64;50.95;99527.98;218578;1260;139145;-67
2023/04/29 07:55:13;;;;;;;11.20;8.00;;;;;;;14.64;51.18;99529.64;220424;1257;139603;-66
2023/04/29 08:00:17;;;;;;;11.00;7.60;;;;;;;14.59;51.28;99534.02;220453;1256;140459;-72
2023/04/29 08:05:21;;;;;;;8.70;7.90;;;;;;;14.84;52.06;99536.41;220409;1257;140076;-70
2023/04/29 08:10:26;;;;;;;10.80;7.80;;;;;;;15.12;51.66;99539.05;219867;1257;139417;-72
2023/04/29 08:15:29;;;;;;;10.20;8.20;;;;;;;15.21;51.22;99537.77;217921;1259;140070;-71
2023/04/29 08:20:32;;;;;;;9.00;8.10;;;;;;;15.28;51.13;99535.02;218879;1259;139399;-73
2023/04/29 08:25:35;;;;;;;13.30;9.20;;;;;;;15.21;50.91;99533.84;220475;1257;139735;-73
2023/04/29 08:30:41;;;;;;;10.80;7.50;;;;;;;15.03;51.30;99536.10;219854;1256;139359;-72
2023/04/29 08:35:49;;;;;;;9.70;8.70;;;;;;;14.96;51.57;99540.65;217842;1260;140542;-73
2023/04/29 08:40:53;;;;;;;9.80;7.80;;;;;;;14.95;51.84;99532.78;218088;1261;139851;-72
2023/04/29 08:45:58;;;;;;;12.70;6.10;;;;;;;15.01;52.22;99530.08;217699;1260;140161;-69
2023/04/29 08:51:02;;;;;;;7.20;6.20;;;;;;;14.86;52.21;99522.04;218217;1257;138958;-70
2023/04/29 08:56:16;;;;;;;23.30;8.30;;;;;;;14.67;52.68;99522.61;218026;1260;142620;-70
2023/04/29 09:01:21;;;;;;;12.80;6.70;;;;;;;14.64;53.23;99526.91;217865;1257;139692;-70
2023/04/29 09:06:25;;;;;;;9.80;7.60;;;;;;;14.55;53.60;99530.20;217743;1257;140300;-71
2023/04/29 09:11:29;;;;;;;8.60;7.70;;;;;;;14.45;53.69;99534.30;217748;1257;140090;-71
2023/04/29 09:16:36;;;;;;;6.90;5.60;;;;;;;14.39;54.16;99534.58;218238;1260;139632;-72
2023/04/29 09:21:40;;;;;;;11.40;7.00;;;;;;;14.53;54.86;99531.23;217737;1260;139366;-71
2023/04/29 09:26:44;;;;;;;11.20;7.50;;;;;;;14.76;54.91;99531.20;217649;1260;139326;-69
2023/04/29 09:31:48;;;;;;;8.60;7.40;;;;;;;14.99;55.20;99531.48;217454;1260;139955;-71
2023/04/29 09:36:57;;;;;;;11.20;7.00;;;;;;;15.29;54.91;99529.86;217359;1257;140118;-71
2023/04/29 09:42:02;;;;;;;7.90;6.70;;;;;;;15.61;54.96;99526.77;218014;1257;140522;-73
2023/04/29 09:47:09;;;;;;;6.70;6.00;;;;;;;15.75;54.35;99523.23;219761;1258;140220;-70
2023/04/29 09:52:15;;;;;;;8.40;6.20;;;;;;;15.85;54.28;99519.51;220443;1257;139388;-73
2023/04/29 09:57:19;;;;;;;11.80;7.90;;;;;;;15.92;54.21;99519.45;220444;1257;139608;-73
2023/04/29 10:02:24;;;;;;;10.80;6.80;;;;;;;16.05;54.10;99521.08;220548;1257;155046;-72
2023/04/29 10:07:28;;;;;;;14.50;7.90;;;;;;;16.49;54.57;99511.59;220595;1260;139925;-72
2023/04/29 10:12:34;;;;;;;9.70;8.60;;;;;;;17.18;54.01;99511.20;219876;1257;141435;-74
2023/04/29 10:17:51;;;;;;;13.30;9.30;;;;;;;17.40;53.05;99508.58;218916;1260;140628;-73
2023/04/29 10:22:55;;;;;;;17.80;9.40;;;;;;;17.41;52.49;99510.61;217316;1260;139266;-70
2023/04/29 10:27:59;;;;;;;9.20;6.50;;;;;;;17.49;52.52;99508.20;217283;1258;139272;-71
2023/04/29 10:33:03;;;;;;;8.70;6.10;;;;;;;17.57;52.51;99505.53;217330;1255;140526;-75
2023/04/29 10:38:13;;;;;;;10.30;7.70;;;;;;;17.60;52.24;99498.45;217333;1260;139830;-69
2023/04/29 10:43:21;;;;;;;10.90;8.10;;;;;;;17.46;51.82;99499.72;217046;1265;139565;-70
2023/04/29 10:48:25;;;;;;;11.90;7.40;;;;;;;17.21;51.94;99501.30;217255;1260;139233;-66
2023/04/29 10:53:28;;;;;;;6.50;5.80;;;;;;;17.11;51.74;99501.34;217297;1257;140055;-68
2023/04/29 10:58:41;;;;;;;6.40;5.10;;;;;;;16.83;51.39;99501.58;218066;1257;139295;-68
2023/04/29 11:03:48;;;;;;;4.60;3.60;;;;;;;16.47;51.28;99506.06;217320;1260;139088;-72
2023/04/29 11:09:13;;;;;;;8.20;5.70;;;;;;;16.36;51.63;99508.22;218590;1260;139330;-70
2023/04/29 11:14:24;;;;;;;5.70;5.20;;;;;;;16.16;51.82;99514.63;217317;1258;140272;-72
2023/04/29 11:19:34;;;;;;;11.20;5.90;;;;;;;15.95;52.40;99515.64;217464;1260;139212;-72
2023/04/29 11:24:47;;;;;;;9.10;5.20;;;;;;;15.55;52.93;99520.59;217340;1269;140160;-71
2023/04/29 11:29:57;;;;;;;7.80;6.00;;;;;;;15.24;53.82;99519.56;217581;1261;139577;-70
2023/04/29 11:35:13;;;;;;;6.50;5.10;;;;;;;15.18;54.42;99512.36;217114;1260;140919;-73
2023/04/29 11:40:16;;;;;;;8.60;5.40;;;;;;;15.25;55.14;99513.69;218378;1257;138998;-72
2023/04/29 11:45:19;;;;;;;6.70;5.80;;;;;;;15.50;55.51;99514.84;217221;1260;139803;-71
2023/04/29 11:50:22;;;;;;;11.50;7.00;;;;;;;15.80;55.60;99512.63;217647;1260;139508;-73
2023/04/29 11:55:25;;;;;;;9.20;7.20;;;;;;;16.05;55.55;99505.44;217503;1257;141549;-71
2023/04/29 12:00:30;;;;;;;10.00;6.50;;;;;;;16.18;55.26;99508.27;220332;1260;140290;-72
2023/04/29 12:05:32;;;;;;;10.70;7.90;;;;;;;16.25;55.11;99503.77;220438;1257;140111;-70
2023/04/29 12:10:37;;;;;;;11.90;8.20;;;;;;;16.43;55.16;99498.56;220457;1257;140255;-73
2023/04/29 12:15:40;;;;;;;9.00;7.40;;;;;;;16.38;54.64;99505.70;220433;1256;139998;-68
2023/04/29 12:20:44;;;;;;;9.50;7.50;;;;;;;16.42;55.22;99501.10;217452;1257;139871;-68
2023/04/29 12:25:49;;;;;;;6.90;5.80;;;;;;;16.49;55.04;99499.05;217611;1259;139490;-69
2023/04/29 12:30:53;;;;;;;14.20;10.30;;;;;;;16.52;55.13;99493.11;218007;1257;141128;-69
2023/04/29 12:35:57;;;;;;;13.40;8.70;;;;;;;16.30;55.08;99488.40;217430;1257;140281;-71
2023/04/29 12:41:01;;;;;;;12.90;8.00;;;;;;;16.10;55.36;99492.56;216962;1261;139722;-69
2023/04/29 12:46:05;;;;;;;17.10;9.50;;;;;;;15.83;55.56;99492.52;217544;1257;141068;-70
2023/04/29 12:51:09;;;;;;;9.60;7.10;;;;;;;15.72;55.95;99486.11;218457;1257;140641;-69
2023/04/29 12:56:16;;;;;;;16.50;8.20;;;;;;;15.81;56.57;99485.59;217650;1258;139372;-69
2023/04/29 13:01:20;;;;;;;12.00;7.60;;;;;;;15.97;56.44;99482.08;218583;1257;141418;-70
2023/04/29 13:06:23;;;;;;;8.80;8.00;;;;;;;16.01;56.40;99479.80;218451;1260;139648;-69
2023/04/29 13:11:25;;;;;;;7.70;6.90;;;;;;;16.02;56.45;99480.02;217671;1257;140179;-70
2023/04/29 13:16:37;;;;;;;9.50;6.90;;;;;;;16.06;56.39;99476.13;217356;1256;139208;-69
2023/04/29 13:21:40;;;;;;;12.60;9.10;;;;;;;16.03;56.46;99476.89;218736;1257;140447;-69
2023/04/29 13:26:42;;;;;;;14.00;7.00;;;;;;;15.99;56.67;99478.35;217358;1258;268339;-69
2023/04/29 13:31:46;;;;;;;9.90;7.20;;;;;;;16.06;57.10;99475.04;217552;1260;139991;-69
2023/04/29 13:36:49;;;;;;;9.60;8.20;;;;;;;16.15;56.88;99470.55;218865;1257;139837;-69
2023/04/29 13:41:51;;;;;;;9.90;7.00;;;;;;;16.07;56.77;99466.92;217364;1257;140053;-70
2023/04/29 13:47:02;;;;;;;13.70;6.70;;;;;;;16.22;57.41;99469.04;220415;1257;140272;-72
2023/04/29 13:52:07;;;;;;;12.70;6.50;;;;;;;16.29;56.96;99471.15;220432;1256;140513;-71
2023/04/29 13:57:13;;;;;;;10.00;7.80;;;;;;;16.28;57.03;99468.63;220535;1257;139484;-68
2023/04/29 14:02:21;;;;;;;8.70;6.30;;;;;;;16.29;56.88;99471.64;220580;1256;139218;-69
2023/04/29 14:07:27;;;;;;;12.70;6.00;;;;;;;16.40;57.27;99463.55;220157;1256;139807;-68
2023/04/29 14:12:29;;;;;;;10.90;7.50;;;;;;;16.61;57.15;99462.17;217434;1257;140313;-69
2023/04/29 14:17:33;;;;;;;7.90;5.70;;;;;;;16.72;56.94;99462.81;220116;1257;140210;-70
2023/04/29 14:22:35;;;;;;;7.10;6.40;;;;;;;16.71;56.70;99461.52;217700;1256;139209;-70
2023/04/29 14:27:38;;;;;;;6.10;5.60;;;;;;;16.68;56.60;99459.06;219047;1256;140428;-69
2023/04/29 14:32:40;;;;;;;7.60;6.90;;;;;;;16.72;56.68;99459.53;219606;1256;139449;-69
2023/04/29 14:37:42;;;;;;;11.50;8.80;;;;;;;16.73;56.50;99452.95;218552;1256;139085;-70
2023/04/29 14:42:45;;;;;;;17.20;8.80;;;;;;;16.66;56.67;99456.99;217558;1257;140431;-72
2023/04/29 14:47:48;;;;;;;7.60;6.90;;;;;;;16.68;56.97;99452.50;217584;1258;139299;-72
2023/04/29 14:52:51;;;;;;;13.00;7.80;;;;;;;16.68;56.83;99447.55;218319;1257;140210;-74
2023/04/29 14:57:55;;;;;;;10.50;8.00;;;;;;;16.68;56.80;99442.98;218983;1256;140008;-74
2023/04/29 15:02:59;;;;;;;11.20;8.90;;;;;;;16.67;57.02;99444.38;219226;1256;139935;-70
2023/04/29 15:08:09;;;;;;;9.40;8.30;;;;;;;16.60;56.78;99446.73;217697;1257;139712;-77
2023/04/29 15:13:11;;;;;;;10.60;7.40;;;;;;;16.50;57.10;99445.08;217271;1257;139258;-73
2023/04/29 15:18:15;;;;;;;13.50;8.90;;;;;;;16.56;57.17;99446.31;217153;1257;141018;-76
2023/04/29 15:23:17;;;;;;;16.30;8.40;;;;;;;16.63;57.36;99444.14;217308;1256;140175;-79
2023/04/29 15:28:19;;;;;;;14.60;10.40;;;;;;;16.68;57.22;99442.87;217349;1257;139670;-74
2023/04/29 15:33:27;;;;;;;14.10;8.90;;;;;;;16.73;57.08;99437.51;217529;1257;139593;-74
2023/04/29 15:38:29;;;;;;;10.30;9.30;;;;;;;16.67;57.07;99437.65;219888;1256;140253;-79
2023/04/29 15:43:34;;;;;;;12.40;11.20;;;;;;;16.53;57.10;99436.80;218564;1256;139142;-80
2023/04/29 15:48:37;;;;;;;11.20;10.00;;;;;;;16.37;57.16;99436.40;217248;1260;139724;-71
2023/04/29 15:53:45;;;;;;;12.50;11.10;;;;;;;16.28;57.47;99440.59;220383;1256;140186;-74
2023/04/29 15:58:48;;;;;;;8.60;7.50;;;;;;;16.25;57.79;99443.84;220525;1255;140868;-73
2023/04/29 16:03:51;;;;;;;11.10;10.00;;;;;;;16.20;58.03;99442.84;220527;1256;139287;-78
2023/04/29 16:09:03;;;;;;;13.80;9.90;;;;;;;16.22;58.20;99441.07;219467;1256;139684;-74
2023/04/29 16:14:07;;;;;;;12.90;9.50;;;;;;;16.16;58.12;99438.92;217509;1259;139678;-74
2023/04/29 16:19:09;;;;;;;11.10;8.90;;;;;;;16.05;58.22;99441.55;218638;1256;139685;-70
2023/04/29 16:24:13;;;;;;;13.70;9.20;;;;;;;15.85;58.42;99438.44;219187;1256;140040;-76
2023/04/29 16:29:17;;;;;;;10.80;9.00;;;;;;;15.68;58.70;99442.05;219492;1257;139626;-73
2023/04/29 16:34:22;;;;;;;10.60;8.00;;;;;;;15.56;58.86;99447.04;217896;1256;139739;-69
2023/04/29 16:39:26;;;;;;;11.30;8.60;;;;;;;15.49;59.13;99448.86;217592;1257;139401;-77
2023/04/29 16:44:28;;;;;;;16.00;8.10;;;;;;;15.43;59.34;99450.65;217930;1259;140521;-78
2023/04/29 16:49:31;;;;;;;13.40;9.00;;;;;;;15.38;59.39;99451.95;217318;1256;139626;-69
2023/04/29 16:54:33;;;;;;;13.40;8.10;;;;;;;15.34;59.64;99451.59;217630;1257;139280;-70
2023/04/29 16:59:35;;;;;;;9.90;6.80;;;;;;;15.27;59.83;99443.40;217222;1256;139241;-71
2023/04/29 17:04:38;;;;;;;7.90;6.80;;;;;;;15.25;60.19;99442.92;218022;1257;140270;-69
2023/04/29 17:09:40;;;;;;;10.50;8.60;;;;;;;15.23;60.29;99448.24;220263;1256;139917;-68
2023/04/29 17:14:43;;;;;;;11.50;7.50;;;;;;;15.22;60.33;99457.43;219552;1256;139284;-71
2023/04/29 17:19:48;;;;;;;10.00;7.80;;;;;;;15.22;60.48;99461.24;219170;1256;140781;-72
2023/04/29 17:24:52;;;;;;;10.90;6.90;;;;;;;15.14;60.48;99463.39;217287;1260;139499;-71
2023/04/29 17:29:55;;;;;;;11.60;8.70;;;;;;;14.96;60.75;99469.66;217548;1257;139536;-73
2023/04/29 17:34:59;;;;;;;12.00;10.30;;;;;;;14.79;61.12;99472.06;217311;1256;140541;-72
2023/04/29 17:40:04;;;;;;;20.80;9.90;;;;;;;14.62;61.33;99476.52;217435;1257;140227;-71
2023/04/29 17:45:11;;;;;;;14.00;9.00;;;;;;;14.51;61.90;99476.98;220022;1256;140920;-73
2023/04/29 17:50:15;;;;;;;9.00;8.00;;;;;;;14.41;62.16;99482.10;220552;1256;140800;-71
2023/04/29 17:55:19;;;;;;;14.10;8.00;;;;;;;14.26;62.19;99481.58;220517;1256;140902;-72
2023/04/29 18:00:22;;;;;;;14.80;9.90;;;;;;;14.12;62.56;99485.19;220566;1256;142213;-72
2023/04/29 18:05:26;;;;;;;12.30;9.90;;;;;;;14.06;63.11;99489.09;220179;1255;139881;-75
2023/04/29 18:10:33;;;;;;;9.30;8.30;;;;;;;14.04;63.41;99495.08;218963;1256;140006;-73
2023/04/29 18:15:39;;;;;;;14.40;10.00;;;;;;;13.92;63.53;99490.54;218181;1259;140496;-77
2023/04/29 18:20:44;;;;;;;18.00;11.80;;;;;;;13.82;63.97;99492.41;217368;1257;141278;-72
2023/04/29 18:25:48;;;;;;;17.20;13.70;;;;;;;13.68;64.12;99496.13;218039;1257;141052;-70
2023/04/29 18:30:52;;;;;;;17.80;13.50;;;;;;;13.56;64.62;99498.57;218229;1257;141330;-75
2023/04/29 18:35:56;;;;;;;26.70;16.30;;;;;;;13.48;64.81;99510.30;217341;1257;140246;-71
2023/04/29 18:40:59;;;;;;;19.50;14.10;;;;;;;13.39;65.36;99517.17;217621;1260;140857;-74
2023/04/29 18:46:04;;;;;;;20.40;15.40;;;;;;;13.34;65.55;99519.70;218314;1256;141020;-71
2023/04/29 18:51:08;;;;;;;20.50;14.80;;;;;;;13.32;65.85;99527.02;217631;1257;141137;-71
2023/04/29 18:56:14;;;;;;;15.80;12.10;;;;;;;13.32;66.19;99550.70;217948;1259;140317;-69
2023/04/29 19:01:17;;;;;;;13.00;8.00;;;;;;;13.29;66.50;99559.07;218555;1257;141440;-73
2023/04/29 19:06:21;;;;;;;12.10;7.50;;;;;;;13.28;66.49;99566.13;219133;1256;140586;-73
2023/04/29 19:11:27;;;;;;;8.20;4.20;;;;;;;13.27;66.75;99573.17;217988;1257;141141;-70
2023/04/29 19:16:30;;;;;;;4.80;4.40;;;;;;;13.19;67.19;99574.08;220005;1256;140495;-69
2023/04/29 19:21:39;;;;;;;5.90;3.60;;;;;;;13.06;67.85;99581.34;217599;1257;141504;-69
2023/04/29 19:26:44;;;;;;;7.80;4.70;;;;;;;12.89;68.46;99589.27;217588;1256;139932;-70
2023/04/29 19:31:50;;;;;;;6.40;4.50;;;;;;;12.79;69.11;99593.20;220567;1256;140316;-74
2023/04/29 19:37:05;;;;;;;;;;;;;;;12.74;69.89;99590.30;218833;1256;245961;-72
2023/04/29 19:42:15;;;;;;;5.00;4.30;;;;;;;12.66;70.28;99582.02;220882;1255;126416;-72
2023/04/29 19:47:20;;;;;;;6.60;5.40;;;;;;;12.61;70.64;99591.75;220386;1256;140682;-71
2023/04/29 19:52:28;;;;;;;5.60;4.20;;;;;;;12.57;71.20;99591.55;220263;1256;142016;-73
2023/04/29 19:57:34;;;;;;;7.70;5.20;;;;;;;12.56;71.48;99593.73;220199;1256;140416;-76
2023/04/29 20:02:37;;;;;;;4.90;4.10;;;;;;;12.53;71.82;99596.31;218022;1256;140598;-69
2023/04/29 20:07:41;;;;;;;5.20;4.60;;;;;;;12.40;72.15;99598.17;219107;1256;140475;-70
2023/04/29 20:12:45;;;;;;;5.40;4.30;;;;;;;12.29;72.31;99597.76;217368;1257;140105;-67
2023/04/29 20:17:47;;;;;;;6.00;5.40;;;;;;;12.18;72.76;99598.12;218957;1257;140247;-67
2023/04/29 20:22:50;;;;;;;6.00;4.80;;;;;;;12.13;73.38;99593.14;218365;1256;141139;-70
2023/04/29 20:27:55;;;;;;;8.20;7.00;;;;;;;12.05;73.72;99592.23;218573;1256;140594;-67
2023/04/29 20:32:58;;;;;;;6.00;5.50;;;;;;;12.01;74.11;99594.95;217478;1256;140250;-67
2023/04/29 20:38:00;;;;;;;8.40;5.60;;;;;;;11.88;74.10;99590.83;219798;1256;140578;-69
2023/04/29 20:43:04;;;;;;;7.30;6.70;;;;;;;11.74;74.56;99590.13;218099;1256;139675;-73
2023/04/29 20:48:08;;;;;;;6.20;5.60;;;;;;;11.71;75.13;99590.83;217581;1259;142157;-68
2023/04/29 20:53:11;;;;;;;7.00;6.10;;;;;;;11.64;75.54;99582.65;218100;1259;139944;-69
2023/04/29 20:58:15;;;;;;;8.60;6.40;;;;;;;11.58;75.95;99585.31;218590;1257;141105;-67
2023/04/29 21:03:21;;;;;;;8.20;6.70;;;;;;;11.62;76.31;99586.73;217744;1256;140560;-67
2023/04/29 21:08:25;;;;;;;6.90;6.30;;;;;;;11.66;76.58;99592.88;218137;1255;141171;-69
2023/04/29 21:13:29;;;;;;;6.20;5.60;;;;;;;11.64;76.64;99598.09;217361;1256;151546;-66
2023/04/29 21:18:33;;;;;;;12.80;6.60;;;;;;;11.59;76.68;99603.58;217485;1256;140276;-67
2023/04/29 21:23:37;;;;;;;6.90;5.70;;;;;;;11.52;76.85;99607.43;218484;1256;140206;-69
2023/04/29 21:28:40;;;;;;;6.90;6.00;;;;;;;11.46;77.13;99613.46;217751;1259;140108;-71
2023/04/29 21:33:44;;;;;;;6.30;5.50;;;;;;;11.44;77.55;99613.86;219765;1257;140953;-71
2023/04/29 21:38:48;;;;;;;12.40;7.30;;;;;;;11.42;77.61;99611.90;219720;1257;140602;-70
2023/04/29 21:43:52;;;;;;;8.20;5.80;;;;;;;11.45;77.80;99610.61;220519;1255;140772;-70
2023/04/29 21:48:56;;;;;;;11.80;8.20;;;;;;;11.43;78.22;99609.95;220412;1255;139624;-72
2023/04/29 21:53:59;;;;;;;7.10;6.20;;;;;;;11.48;78.13;99615.00;220151;1257;140779;-72
2023/04/29 21:59:03;;;;;;;10.30;7.60;;;;;;;11.51;78.25;99617.56;219948;1256;140326;-71
2023/04/29 22:04:07;;;;;;;9.60;7.20;;;;;;;11.56;78.44;99616.17;219146;1259;140404;-72
2023/04/29 22:09:10;;;;;;;9.60;8.50;;;;;;;11.58;78.45;99618.30;218026;1257;141533;-70
2023/04/29 22:14:13;;;;;;;11.10;9.90;;;;;;;11.58;78.56;99615.48;217808;1257;140552;-69
2023/04/29 22:19:17;;;;;;;9.80;8.40;;;;;;;11.57;78.80;99615.98;218675;1256;140172;-69
2023/04/29 22:24:21;;;;;;;12.50;9.50;;;;;;;11.57;78.92;99620.90;217898;1257;140083;-72
2023/04/29 22:29:24;;;;;;;10.10;9.00;;;;;;;11.56;79.11;99624.26;218339;1256;140717;-70
2023/04/29 22:34:27;;;;;;;14.50;11.30;;;;;;;11.54;79.31;99622.71;219649;1259;140225;-70
2023/04/29 22:39:31;;;;;;;12.60;11.20;;;;;;;11.56;79.41;99625.05;218336;1257;143184;-70
2023/04/29 22:44:36;;;;;;;13.10;10.20;;;;;;;11.60;79.70;99628.60;218847;1256;140599;-68
2023/04/29 22:49:39;;;;;;;16.60;13.30;;;;;;;11.61;79.81;99632.07;217653;1259;140372;-68
2023/04/29 22:54:43;;;;;;;16.70;12.70;;;;;;;11.61;80.16;99635.02;217760;1257;140221;-69
2023/04/29 22:59:48;;;;;;;13.90;11.60;;;;;;;11.60;80.35;99636.32;217256;1257;140251;-69
2023/04/29 23:04:53;;;;;;;18.10;14.50;;;;;;;11.59;80.58;99639.89;218859;1259;140946;-67
2023/04/29 23:09:57;;;;;;;23.00;14.20;;;;;;;11.61;80.80;99637.04;217437;1258;141239;-68